createdAt,value
2023-04-28T00:00:04.675Z,72.09
2023-04-28T00:02:32.995Z,75.28
2023-04-28T00:05:01.018Z,73.66
2023-04-28T00:07:29.271Z,74.91
2023-04-28T00:09:57.782Z,72.41
2023-04-28T00:12:25.872Z,74.60
2023-04-28T00:14:54.489Z,74.26
2023-04-28T00:17:23.817Z,74.45
2023-04-28T00:19:51.720Z,75.23
2023-04-28T00:22:19.674Z,75.56
2023-04-28T00:24:47.562Z,75.33
2023-04-28T00:27:15.423Z,75.10
2023-04-28T00:29:43.669Z,75.30
2023-04-28T00:32:11.820Z,77.39
2023-04-28T00:34:41.242Z,76.38
2023-04-28T00:37:09.021Z,76.28
2023-04-28T00:39:36.874Z,77.38
2023-04-28T00:42:05.372Z,76.15
2023-04-28T00:44:33.189Z,75.74
2023-04-28T00:47:01.083Z,75.63
2023-04-28T00:49:28.838Z,74.40
2023-04-28T00:51:58.571Z,77.03
2023-04-28T00:54:27.099Z,76.82
2023-04-28T00:56:56.043Z,76.50
2023-04-28T00:59:23.875Z,76.35
2023-04-28T01:01:51.762Z,76.83
2023-04-28T01:04:22.191Z,77.58
2023-04-28T01:06:52.108Z,79.30
2023-04-28T01:09:21.693Z,78.92
2023-04-28T01:11:51.988Z,79.39
2023-04-28T01:14:34.623Z,79.34
2023-04-28T01:17:02.745Z,79.77
2023-04-28T01:19:30.670Z,78.30
2023-04-28T01:21:58.716Z,78.31
2023-04-28T01:24:28.941Z,77.92
2023-04-28T01:27:00.145Z,78.22
2023-04-28T01:29:29.350Z,80.46
2023-04-28T01:31:57.261Z,79.30
2023-04-28T01:34:25.234Z,79.28
2023-04-28T01:36:53.092Z,79.13
2023-04-28T01:39:21.014Z,80.30
2023-04-28T01:41:50.206Z,79.56
2023-04-28T01:44:18.171Z,79.26
2023-04-28T01:46:46.269Z,80.44
2023-04-28T01:49:14.271Z,80.09
2023-04-28T01:51:43.030Z,79.55
2023-04-28T01:54:11.407Z,79.00
2023-04-28T01:56:40.574Z,80.06
2023-04-28T01:59:09.775Z,79.63
2023-04-28T02:01:37.744Z,79.18
2023-04-28T02:04:06.632Z,78.52
2023-04-28T02:06:36.740Z,79.62
2023-04-28T02:09:04.732Z,80.00
2023-04-28T02:11:34.625Z,79.87
2023-04-28T02:14:02.488Z,80.13
2023-04-28T02:16:33.137Z,81.22
2023-04-28T02:19:01.012Z,79.44
2023-04-28T02:21:29.296Z,80.03
2023-04-28T02:23:57.517Z,80.12
2023-04-28T02:26:25.898Z,80.22
2023-04-28T02:28:53.798Z,79.46
2023-04-28T02:31:21.882Z,81.33
2023-04-28T02:33:51.096Z,80.10
2023-04-28T02:36:18.891Z,81.09
2023-04-28T02:38:46.741Z,81.31
2023-04-28T02:41:15.299Z,80.33
2023-04-28T02:43:43.228Z,80.38
2023-04-28T02:46:11.368Z,80.08
2023-04-28T02:48:39.288Z,80.30
2023-04-28T02:51:09.146Z,82.22
2023-04-28T02:53:37.153Z,81.07
2023-04-28T02:56:05.588Z,82.42
2023-04-28T02:58:34.451Z,82.17
2023-04-28T03:01:03.155Z,81.81
2023-04-28T03:03:31.257Z,82.11
2023-04-28T03:05:59.284Z,82.95
2023-04-28T03:08:28.987Z,82.01
2023-04-28T03:10:57.245Z,83.28
2023-04-28T03:13:25.526Z,82.96
2023-04-28T03:15:53.775Z,82.86
2023-04-28T03:18:22.457Z,83.47
2023-04-28T03:20:50.577Z,83.40
2023-04-28T03:23:18.489Z,83.65
2023-04-28T03:25:47.725Z,85.45
2023-04-28T03:28:16.190Z,85.54
2023-04-28T03:30:44.036Z,85.15
2023-04-28T03:33:11.959Z,85.21
2023-04-28T03:35:40.115Z,85.63
2023-04-28T03:38:08.061Z,85.61
2023-04-28T03:40:36.959Z,86.32
2023-04-28T03:43:15.241Z,85.32
2023-04-28T03:46:00.497Z,84.13
2023-04-28T03:48:28.576Z,84.98
2023-04-28T03:50:57.011Z,84.55
2023-04-28T03:53:26.221Z,83.42
2023-04-28T03:55:54.522Z,82.73
2023-04-28T03:58:23.851Z,82.14
2023-04-28T04:00:51.722Z,83.34
2023-04-28T04:03:21.822Z,84.53
2023-04-28T04:05:49.985Z,84.77
2023-04-28T04:08:18.157Z,83.60
2023-04-28T04:10:46.022Z,84.02
2023-04-28T04:13:13.857Z,82.56
2023-04-28T04:15:44.241Z,83.11
2023-04-28T04:18:12.487Z,83.65
2023-04-28T04:21:03.580Z,83.69
2023-04-28T04:23:31.577Z,83.20
2023-04-28T04:25:59.367Z,83.84
2023-04-28T04:28:27.289Z,84.76
2023-04-28T04:30:56.602Z,83.41
2023-04-28T04:33:24.514Z,82.74
2023-04-28T04:35:52.594Z,82.61
2023-04-28T04:38:20.691Z,81.88
2023-04-28T04:40:49.612Z,82.23
2023-04-28T04:43:17.564Z,81.68
2023-04-28T04:45:49.544Z,81.11
2023-04-28T04:48:19.659Z,81.42
2023-04-28T04:50:47.927Z,83.63
2023-04-28T04:53:16.668Z,83.56
2023-04-28T04:55:45.618Z,83.83
2023-04-28T04:58:13.893Z,81.99
2023-04-28T05:01:00.448Z,81.06
2023-04-28T05:03:29.867Z,79.82
2023-04-28T05:05:57.987Z,79.77
2023-04-28T05:08:40.170Z,79.75
2023-04-28T05:11:08.024Z,79.82
2023-04-28T05:13:37.765Z,80.01
2023-04-28T05:16:06.751Z,82.45
2023-04-28T05:19:05.293Z,81.55
2023-04-28T05:21:33.195Z,82.19
2023-04-28T05:24:01.051Z,83.25
2023-04-28T05:26:29.324Z,82.65
2023-04-28T05:29:01.765Z,82.77
2023-04-28T05:31:30.409Z,82.72
2023-04-28T05:33:58.963Z,80.79
2023-04-28T05:36:28.662Z,81.01
2023-04-28T05:38:56.898Z,79.24
2023-04-28T05:41:24.821Z,79.01
2023-04-28T05:43:52.722Z,77.38
2023-04-28T05:46:29.887Z,73.74
2023-04-28T05:48:59.594Z,71.80
2023-04-28T05:51:31.114Z,69.71
2023-04-28T05:53:58.960Z,69.69
2023-04-28T05:56:29.304Z,68.55
2023-04-28T05:58:58.607Z,70.40
2023-04-28T06:01:26.868Z,69.50
2023-04-28T06:03:56.544Z,70.76
2023-04-28T06:06:27.776Z,69.50
2023-04-28T06:08:57.516Z,69.41
2023-04-28T06:11:27.274Z,68.83
2023-04-28T06:13:55.194Z,67.04
2023-04-28T06:16:23.495Z,67.22
2023-04-28T06:18:52.030Z,65.21
2023-04-28T06:21:21.295Z,62.89
2023-04-28T06:23:49.214Z,63.98
2023-04-28T06:26:18.990Z,64.30
2023-04-28T06:28:46.868Z,63.14
2023-04-28T06:31:15.029Z,62.80
2023-04-28T06:33:42.925Z,62.94
2023-04-28T06:36:13.796Z,61.70
2023-04-28T06:38:42.874Z,60.65
2023-04-28T06:41:11.021Z,57.73
2023-04-28T06:43:41.175Z,57.71
2023-04-28T06:46:12.198Z,58.00
2023-04-28T06:48:40.410Z,59.03
2023-04-28T06:51:08.207Z,58.17
2023-04-28T06:53:37.175Z,57.32
2023-04-28T06:56:11.244Z,58.15
2023-04-28T06:58:41.102Z,57.65
2023-04-28T07:01:09.518Z,59.17
2023-04-28T07:03:37.403Z,59.25
2023-04-28T07:06:06.536Z,59.35
2023-04-28T07:08:34.480Z,62.09
2023-04-28T07:11:04.336Z,65.07
2023-04-28T07:13:32.641Z,65.03
2023-04-28T07:16:02.185Z,63.75
2023-04-28T07:18:30.024Z,64.80
2023-04-28T07:20:57.861Z,59.35
2023-04-28T07:23:25.829Z,63.58
2023-04-28T07:25:53.708Z,61.97
2023-04-28T07:28:21.590Z,59.06
2023-04-28T07:30:49.404Z,59.51
2023-04-28T07:33:18.598Z,58.22
2023-04-28T07:35:46.388Z,56.30
2023-04-28T07:38:14.320Z,58.83
2023-04-28T07:40:43.496Z,59.06
2023-04-28T07:43:11.333Z,61.87
2023-04-28T07:45:39.980Z,58.15
2023-04-28T07:48:08.274Z,58.75
2023-04-28T07:50:37.506Z,58.91
2023-04-28T07:53:05.686Z,62.71
2023-04-28T07:55:33.959Z,61.86
2023-04-28T07:58:01.898Z,62.92
2023-04-28T08:00:29.777Z,62.57
2023-04-28T08:02:58.019Z,61.65
2023-04-28T08:05:26.211Z,64.20
2023-04-28T08:07:55.914Z,66.57
2023-04-28T08:10:23.818Z,64.84
2023-04-28T08:12:51.796Z,66.88
2023-04-28T08:15:19.664Z,66.44
2023-04-28T08:17:47.593Z,65.05
2023-04-28T08:20:20.513Z,65.21
2023-04-28T08:22:49.511Z,66.14
2023-04-28T08:25:19.213Z,66.73
2023-04-28T08:27:47.204Z,64.23
2023-04-28T08:30:15.092Z,66.75
2023-04-28T08:32:42.981Z,65.71
2023-04-28T08:35:11.062Z,67.83
2023-04-28T08:37:38.926Z,67.62
2023-04-28T08:40:09.959Z,66.50
2023-04-28T08:42:39.813Z,66.17
2023-04-28T08:45:08.954Z,67.11
2023-04-28T08:47:39.491Z,66.21
2023-04-28T08:50:08.976Z,67.81
2023-04-28T08:52:36.972Z,66.32
2023-04-28T08:55:09.547Z,68.96
2023-04-28T08:57:41.379Z,68.36
2023-04-28T09:00:10.569Z,66.04
2023-04-28T09:02:41.917Z,64.84
2023-04-28T09:05:11.375Z,68.66
2023-04-28T09:07:39.920Z,69.92
2023-04-28T09:10:18.966Z,67.05
2023-04-28T09:12:49.936Z,66.09
2023-04-28T09:15:27.993Z,67.18
2023-04-28T09:17:55.894Z,64.36
2023-04-28T09:20:24.746Z,67.51
2023-04-28T09:22:53.782Z,65.19
2023-04-28T09:25:23.541Z,66.82
2023-04-28T09:27:52.909Z,66.16
2023-04-28T09:30:21.353Z,64.67
2023-04-28T09:33:06.028Z,66.57
2023-04-28T09:35:40.955Z,64.77
2023-04-28T09:38:09.002Z,63.69
2023-04-28T09:40:50.799Z,65.10
2023-04-28T09:43:27.012Z,66.00
2023-04-28T09:45:55.226Z,69.32
2023-04-28T09:48:33.972Z,69.55
2023-04-28T09:51:03.446Z,69.62
2023-04-28T09:53:31.675Z,71.05
2023-04-28T09:56:01.161Z,70.43
2023-04-28T09:58:32.225Z,70.55
2023-04-28T10:01:02.026Z,77.82
2023-04-28T10:03:31.583Z,79.66
2023-04-28T10:06:00.649Z,83.62
2023-04-28T10:08:29.138Z,80.97
2023-04-28T10:10:57.844Z,82.05
2023-04-28T10:13:26.493Z,81.25
2023-04-28T10:15:58.169Z,84.29
2023-04-28T10:18:27.065Z,83.92
2023-04-28T10:20:58.793Z,82.43
2023-04-28T10:23:43.649Z,80.91
2023-04-28T10:26:14.211Z,83.34
2023-04-28T10:28:47.557Z,84.07
2023-04-28T10:31:18.889Z,82.22
2023-04-28T10:33:46.653Z,83.76
2023-04-28T10:36:49.033Z,84.84
2023-04-28T10:39:16.950Z,84.94
2023-04-28T10:41:46.766Z,85.37
2023-04-28T10:44:42.481Z,87.92
2023-04-28T10:47:12.342Z,89.54
2023-04-28T10:50:09.023Z,91.08
2023-04-28T10:52:52.518Z,90.79
2023-04-28T10:55:33.014Z,91.08
2023-04-28T10:58:32.427Z,91.51
2023-04-28T11:01:32.336Z,93.30
2023-04-28T11:04:11.820Z,90.88
2023-04-28T11:06:41.357Z,93.80
2023-04-28T11:09:52.410Z,91.92
2023-04-28T11:12:20.290Z,94.87
2023-04-28T11:14:48.077Z,91.20
2023-04-28T11:17:18.677Z,94.07
2023-04-28T11:19:48.648Z,95.68
2023-04-28T11:22:18.498Z,93.95
2023-04-28T11:24:57.623Z,93.03
2023-04-28T11:27:26.819Z,92.41
2023-04-28T11:29:54.753Z,90.57
2023-04-28T11:32:28.365Z,88.35
2023-04-28T11:34:57.768Z,87.23
2023-04-28T11:37:25.575Z,89.40
2023-04-28T11:39:53.498Z,92.82
2023-04-28T11:42:21.406Z,93.32
2023-04-28T11:44:53.834Z,92.34
2023-04-28T11:47:32.854Z,89.97
2023-04-28T11:50:03.442Z,93.58
2023-04-28T11:52:31.578Z,91.78
2023-04-28T11:55:02.379Z,90.65
2023-04-28T11:57:30.528Z,92.19
2023-04-28T12:00:14.289Z,91.69
2023-04-28T12:02:42.767Z,92.73
2023-04-28T12:05:13.316Z,94.41
2023-04-28T12:07:42.875Z,90.75
2023-04-28T12:10:15.827Z,94.79
2023-04-28T12:15:15.016Z,92.97
2023-04-28T12:17:44.389Z,90.29
2023-04-28T12:20:37.541Z,89.54
2023-04-28T12:23:07.552Z,91.38
2023-04-28T12:25:44.654Z,87.55
2023-04-28T12:28:12.558Z,89.08
2023-04-28T12:30:42.292Z,88.62
2023-04-28T12:33:23.856Z,88.86
2023-04-28T12:35:54.805Z,88.50
2023-04-28T12:38:22.690Z,86.76
2023-04-28T12:40:50.553Z,89.52
2023-04-28T12:43:18.477Z,84.92
2023-04-28T12:45:46.382Z,84.64
2023-04-28T12:48:14.326Z,83.15
2023-04-28T12:50:42.127Z,84.10
2023-04-28T12:53:11.415Z,83.41
2023-04-28T12:55:40.604Z,84.49
2023-04-28T12:58:08.583Z,84.91
2023-04-28T13:00:36.449Z,84.38
2023-04-28T13:03:04.634Z,81.43
2023-04-28T13:05:33.224Z,82.61
2023-04-28T13:08:01.009Z,83.43
2023-04-28T13:10:30.272Z,83.02
2023-04-28T13:12:59.020Z,84.35
2023-04-28T13:15:27.244Z,83.80
2023-04-28T13:17:55.195Z,84.26
2023-04-28T13:20:22.996Z,82.53
2023-04-28T13:22:50.777Z,81.92
2023-04-28T13:25:18.823Z,81.84
2023-04-28T13:27:48.514Z,80.35
2023-04-28T13:30:16.503Z,81.47
2023-04-28T13:32:44.423Z,80.54
2023-04-28T13:35:12.282Z,81.03
2023-04-28T13:37:45.563Z,79.62
2023-04-28T13:40:13.899Z,81.29
2023-04-28T13:42:41.732Z,81.24
2023-04-28T13:45:12.033Z,82.46
2023-04-28T13:47:39.810Z,81.05
2023-04-28T13:50:08.684Z,82.10
2023-04-28T13:52:36.534Z,81.29
2023-04-28T13:55:04.549Z,81.14
2023-04-28T13:57:32.416Z,78.88
2023-04-28T14:00:00.411Z,82.31
2023-04-28T14:02:29.854Z,82.24
2023-04-28T14:04:57.876Z,80.85
2023-04-28T14:07:25.741Z,82.14
2023-04-28T14:09:53.902Z,83.98
2023-04-28T14:12:21.652Z,81.25
2023-04-28T14:14:49.930Z,82.41
2023-04-28T14:17:17.935Z,81.24
2023-04-28T14:19:47.527Z,83.65
2023-04-28T14:22:15.732Z,82.53
2023-04-28T14:24:43.986Z,83.22
2023-04-28T14:27:11.919Z,82.06
2023-04-28T14:29:39.776Z,81.03
2023-04-28T14:32:07.647Z,80.68
2023-04-28T14:34:35.505Z,79.76
2023-04-28T14:37:04.770Z,80.45
2023-04-28T14:39:32.682Z,79.99
2023-04-28T14:42:00.577Z,81.00
2023-04-28T14:44:28.387Z,80.26
2023-04-28T14:46:56.958Z,81.75
2023-04-28T14:49:24.962Z,83.10
2023-04-28T14:51:53.761Z,84.27
2023-04-28T14:54:23.100Z,83.64
2023-04-28T14:56:51.238Z,84.49
2023-04-28T14:59:19.686Z,84.00
2023-04-28T15:01:48.474Z,83.91
2023-04-28T15:04:16.476Z,83.33
2023-04-28T15:06:44.466Z,84.61
2023-04-28T15:09:12.763Z,84.55
2023-04-28T15:11:41.929Z,85.02
2023-04-28T15:14:09.744Z,85.67
2023-04-28T15:16:37.734Z,85.46
2023-04-28T15:19:06.524Z,84.82
2023-04-28T15:21:34.474Z,86.88
2023-04-28T15:24:02.323Z,86.80
2023-04-28T15:26:30.247Z,87.66
2023-04-28T15:29:00.762Z,89.18
2023-04-28T15:31:28.966Z,88.61
2023-04-28T15:33:57.591Z,88.91
2023-04-28T15:36:25.544Z,88.76
2023-04-28T15:38:53.372Z,89.14
2023-04-28T15:41:21.922Z,88.27
2023-04-28T15:43:50.485Z,88.73
2023-04-28T15:46:19.868Z,89.23
2023-04-28T15:48:48.069Z,89.47
2023-04-28T15:51:15.952Z,88.79
2023-04-28T15:53:44.016Z,90.10
2023-04-28T15:56:11.954Z,89.26
2023-04-28T15:58:39.882Z,89.29
2023-04-28T16:01:08.027Z,91.56
2023-04-28T16:03:37.542Z,90.93
2023-04-28T16:06:06.598Z,91.93
2023-04-28T16:08:34.604Z,93.10
2023-04-28T16:11:02.704Z,94.36
2023-04-28T16:13:32.713Z,96.31
2023-04-28T16:16:00.532Z,95.69
2023-04-28T16:18:28.675Z,96.60
2023-04-28T16:20:58.377Z,95.81
2023-04-28T16:23:26.185Z,95.09
2023-04-28T16:25:54.121Z,96.48
2023-04-28T16:28:22.170Z,95.23
2023-04-28T16:30:50.015Z,95.67
2023-04-28T16:33:17.815Z,96.25
2023-04-28T16:35:45.596Z,95.07
2023-04-28T16:38:14.866Z,95.54
2023-04-28T16:40:42.724Z,95.96
2023-04-28T16:43:10.580Z,96.71
2023-04-28T16:45:38.664Z,98.75
2023-04-28T16:48:06.517Z,99.33
2023-04-28T16:50:34.726Z,98.81
2023-04-28T16:53:02.713Z,99.44
2023-04-28T16:55:32.639Z,99.60
2023-04-28T16:58:01.025Z,99.92
2023-04-28T17:00:28.877Z,99.03
2023-04-28T17:02:56.829Z,98.82
2023-04-28T17:05:24.976Z,99.25
2023-04-28T17:07:55.037Z,99.37
2023-04-28T17:10:23.102Z,100.00
2023-04-28T17:12:52.649Z,99.56
2023-04-28T17:15:20.445Z,99.94
2023-04-28T17:17:50.935Z,99.93
2023-04-28T17:20:20.087Z,100.00
2023-04-28T17:22:48.596Z,100.00
2023-04-28T17:25:17.197Z,100.00
2023-04-28T17:27:44.929Z,100.00
2023-04-28T17:30:14.693Z,100.00
2023-04-28T17:32:42.786Z,100.00
2023-04-28T17:35:11.002Z,100.00
2023-04-28T17:37:38.753Z,100.00
2023-04-28T17:40:07.894Z,100.00
2023-04-28T17:42:35.856Z,100.00
2023-04-28T17:45:04.564Z,100.00
2023-04-28T17:47:34.240Z,100.00
2023-04-28T17:50:02.544Z,100.00
2023-04-28T17:52:31.336Z,100.00
2023-04-28T17:54:59.157Z,100.00
2023-04-28T17:57:27.105Z,100.00
2023-04-28T17:59:54.883Z,100.00
2023-04-28T18:02:22.953Z,100.00
2023-04-28T18:04:52.344Z,100.00
2023-04-28T18:07:20.685Z,100.00
2023-04-28T18:09:48.491Z,100.00
2023-04-28T18:12:16.373Z,100.00
2023-04-28T18:14:44.451Z,100.00
2023-04-28T18:17:12.399Z,100.00
2023-04-28T18:19:40.519Z,100.00
2023-04-28T18:22:09.998Z,100.00
2023-04-28T18:24:38.174Z,100.00
2023-04-28T18:27:05.993Z,100.00
2023-04-28T18:29:33.853Z,100.00
2023-04-28T18:32:01.837Z,100.00
2023-04-28T18:34:29.878Z,100.00
2023-04-28T18:36:57.692Z,100.00
2023-04-28T18:39:26.967Z,100.00
2023-04-28T18:41:54.838Z,100.00
2023-04-28T18:44:23.198Z,100.00
2023-04-28T18:46:51.436Z,100.00
2023-04-28T18:49:19.641Z,100.00
2023-04-28T18:51:47.461Z,100.00
2023-04-28T18:54:16.854Z,100.00
2023-04-28T18:56:46.111Z,100.00
2023-04-28T18:59:14.114Z,100.00
2023-04-28T19:01:41.892Z,100.00
2023-04-28T19:04:09.966Z,100.00
2023-04-28T19:06:37.939Z,100.00
2023-04-28T19:09:05.766Z,100.00
2023-04-28T19:11:33.727Z,100.00
2023-04-28T19:14:03.013Z,100.00
2023-04-28T19:16:30.968Z,100.00
2023-04-28T19:18:58.821Z,100.00
2023-04-28T19:21:27.531Z,100.00
2023-04-28T19:23:55.737Z,100.00
2023-04-28T19:26:24.144Z,100.00
2023-04-28T19:28:52.063Z,100.00
2023-04-28T19:31:21.272Z,100.00
2023-04-28T19:33:49.138Z,100.00
2023-04-28T19:36:17.720Z,100.00
2023-04-28T19:38:46.530Z,100.00
2023-04-28T19:41:14.681Z,100.00
2023-04-28T19:43:43.394Z,100.00
2023-04-28T19:46:11.398Z,100.00
2023-04-28T19:48:40.934Z,100.00
2023-04-28T19:51:08.717Z,100.00
2023-04-28T19:53:40.440Z,100.00
2023-04-28T19:56:10.090Z,100.00
2023-04-28T19:58:37.996Z,100.00
2023-04-28T20:01:07.160Z,100.00
2023-04-28T20:03:36.212Z,100.00
2023-04-28T20:06:05.717Z,100.00
2023-04-28T20:08:33.459Z,100.00
2023-04-28T20:11:01.399Z,100.00
2023-04-28T20:13:29.852Z,100.00
2023-04-28T20:15:57.813Z,100.00
2023-04-28T20:18:25.862Z,100.00
2023-04-28T20:20:54.453Z,100.00
2023-04-28T20:23:23.719Z,100.00
2023-04-28T20:25:51.549Z,100.00
2023-04-28T20:28:19.383Z,100.00
2023-04-28T20:30:47.189Z,100.00
2023-04-28T20:33:16.033Z,100.00
2023-04-28T20:35:44.372Z,100.00
2023-04-28T20:38:12.185Z,100.00
2023-04-28T20:40:41.536Z,100.00
2023-04-28T20:43:09.487Z,100.00
2023-04-28T20:45:38.449Z,100.00
2023-04-28T20:48:06.659Z,100.00
2023-04-28T20:50:36.337Z,100.00
2023-04-28T20:53:04.182Z,100.00
2023-04-28T20:55:32.004Z,100.00
2023-04-28T20:58:01.198Z,100.00
2023-04-28T21:00:29.241Z,100.00
2023-04-28T21:02:57.495Z,100.00
2023-04-28T21:05:25.475Z,100.00
2023-04-28T21:07:53.289Z,100.00
2023-04-28T21:10:21.114Z,100.00
2023-04-28T21:12:48.962Z,100.00
2023-04-28T21:15:18.384Z,100.00
2023-04-28T21:17:46.349Z,100.00
2023-04-28T21:20:14.695Z,100.00
2023-04-28T21:22:42.484Z,100.00
2023-04-28T21:25:10.719Z,100.00
2023-04-28T21:27:38.736Z,100.00
2023-04-28T21:30:08.018Z,100.00
2023-04-28T21:32:37.382Z,100.00
2023-04-28T21:35:05.923Z,100.00
2023-04-28T21:37:33.761Z,100.00
2023-04-28T21:40:01.970Z,100.00
2023-04-28T21:42:31.674Z,100.00
2023-04-28T21:44:59.549Z,100.00
2023-04-28T21:47:28.196Z,100.00
2023-04-28T21:49:57.482Z,100.00
2023-04-28T21:52:25.389Z,100.00
2023-04-28T21:54:53.808Z,100.00
2023-04-28T21:57:21.657Z,100.00
2023-04-28T21:59:50.450Z,100.00
2023-04-28T22:02:18.635Z,100.00
2023-04-28T22:04:47.120Z,100.00
2023-04-28T22:07:16.368Z,100.00
2023-04-28T22:09:44.289Z,100.00
2023-04-28T22:12:12.115Z,100.00
2023-04-28T22:14:41.642Z,100.00
2023-04-28T22:17:09.801Z,100.00
2023-04-28T22:19:37.827Z,100.00
2023-04-28T22:22:05.694Z,100.00
2023-04-28T22:24:34.896Z,100.00
2023-04-28T22:27:03.209Z,100.00
2023-04-28T22:29:31.197Z,100.00
2023-04-28T22:31:59.060Z,100.00
2023-04-28T22:34:26.839Z,100.00
2023-04-28T22:36:54.995Z,100.00
2023-04-28T22:39:25.039Z,100.00
2023-04-28T22:41:54.420Z,100.00
2023-04-28T22:44:22.210Z,100.00
2023-04-28T22:46:50.163Z,100.00
2023-04-28T22:49:20.267Z,100.00
2023-04-28T22:51:48.310Z,100.00
2023-04-28T22:54:16.098Z,100.00
2023-04-28T22:56:43.918Z,100.00
2023-04-28T22:59:13.146Z,100.00
2023-04-28T23:01:41.057Z,100.00
2023-04-28T23:04:09.261Z,100.00
2023-04-28T23:06:37.233Z,100.00
2023-04-28T23:09:05.422Z,100.00
2023-04-28T23:11:33.258Z,100.00
2023-04-28T23:14:01.129Z,100.00
2023-04-28T23:16:30.465Z,100.00
2023-04-28T23:18:58.450Z,100.00
2023-04-28T23:21:26.397Z,100.00
2023-04-28T23:23:54.169Z,100.00
2023-04-28T23:26:22.085Z,100.00
2023-04-28T23:28:49.866Z,100.00
2023-04-28T23:31:17.794Z,100.00
2023-04-28T23:33:47.075Z,100.00
2023-04-28T23:36:15.145Z,100.00
2023-04-28T23:38:43.184Z,100.00
2023-04-28T23:41:10.982Z,100.00
2023-04-28T23:43:38.800Z,100.00
2023-04-28T23:46:07.146Z,100.00
2023-04-28T23:48:36.002Z,100.00
2023-04-28T23:51:05.713Z,100.00
2023-04-28T23:53:33.562Z,100.00
2023-04-28T23:56:01.413Z,100.00
2023-04-28T23:58:29.197Z,100.00
